Friday, March 27, 2015
01:58 UTC
  |  Log In   |  Register Free
Airport Search:

Shenandoah Valley Regional Airport
(KSHD)

Shenandoah Valley Regional Airport Diagram
No Airport Diagram Available

FAA data valid effective March 05, 2015 - April 30, 2015 (unless otherwise noted).

 
 
 
 
 
 
 
 
 
 
 
 
 
 

Current Aviation Weather for Shenandoah Valley Regional Airport (KSHD)

The most recent METAR observation for KSHD was updated at: 1414
METAR Summary (Translated METAR)
KSHD
251355Z AUTO 20006KT 10SM OVC025 06/00 A3031 RMK AO2 T00561005
KVBW
251355Z AUTO 16008KT 10SM OVC027 04/00 A3029 RMK AO2 T00421003
(6.9 nm NW from KSHD)
KW13
251355Z AUTO 12004KT 10SM OVC020 03/M02 A3030 RMK AO1 T00311017
(11.4 nm SW from KSHD)
TAF
No TAF information found within 50 nm of KSHD
  Airport Weather Conditions for KSHD

 Current Weather at SHD
58° F
Overcast
North winds at 0.0 mph
SHD NOAA Radar

Pressure: 29.70 in
Humidity: 86%
Wind: Calm
Dew Point: 54.1°F
Visibility: 10.00 mi


Airport Weather Forecast for KSHD

Translated METAR and TAF for KSHD
Translated METAR for KSHD (0158 UTC 27 March 2015)
found at http://aviationweather.gov/adds/metars/
 
METAR text: KSHD 270135Z AUTO 31003KT 10SM SCT060 BKN095 OVC120 14/12 A2972 RMK AO2 T01400118
Conditions at: KSHD (STAUNTON/SHENAND, VA, US) observed 0135 UTC 27 March 2015
Temperature: 14.0°C (57°F)
Dewpoint: 11.8°C (53°F) [RH = 87%]
Pressure (altimeter): 29.72 inches Hg (1006.5 mb)
Winds: from the NW (310 degrees) at 3 MPH (3 knots; 1.6 m/s)
Visibility: 10 or more miles (16+ km)
Ceiling: 9500 feet AGL
Clouds: scattered clouds at 6000 feet AGL
broken clouds at 9500 feet AGL
overcast cloud deck at 12000 feet AGL
Weather: automated observation with no human augmentation;
there may or may not be significant weather present at this time
Translated TAF for KSHD

There is no translated TAF available for this airport

Find All Airport Services Find A Hotel Find A Rental Car Find A Golf Course Find A Restaurant $100 Hamburger



FBO's on the Field
FBO Company Facility Photos Services Transportation Aviation Fuel Prices: Prices include tax
Catering Weather Repair Courtesy Rental Type 100LL JetA JetA+ MOGAS 8087
 
Avnet Shenandoah Valley

This FBO has not yet been rated
FS:Avfuel
Last Updated: Mar-10
Login to update fuel prices
SS:
Contact Avnet Shenandoah ValleyMore FBO Information
 
Add another FBO Facility Photos Catering Weather Repair Courtesy Rental Type 100LL JetA JetA+ MOGAS 8087
Services Transportation Aviation Fuel Prices: Prices include tax


model-print
model-print
model-print
model-print